createdAt,value
2018-12-16T00:01:04.873Z,25.97
2018-12-16T00:03:32.356Z,25.67
2018-12-16T00:05:59.856Z,26.77
2018-12-16T00:08:27.365Z,25.67
2018-12-16T00:10:54.868Z,27.17
2018-12-16T00:13:22.348Z,25.83
2018-12-16T00:15:49.841Z,26.23
2018-12-16T00:18:17.323Z,26.67
2018-12-16T00:20:44.824Z,25.70
2018-12-16T00:23:12.316Z,27.10
2018-12-16T00:25:39.828Z,26.00
2018-12-16T00:28:07.315Z,25.23
2018-12-16T00:30:34.777Z,26.20
2018-12-16T00:33:02.298Z,26.90
2018-12-16T00:35:29.769Z,26.03
2018-12-16T00:37:57.245Z,26.83
2018-12-16T00:40:24.726Z,25.23
2018-12-16T00:42:52.208Z,27.13
2018-12-16T00:45:19.687Z,27.00
2018-12-16T00:47:47.611Z,27.93
2018-12-16T00:50:15.204Z,27.07
2018-12-16T00:52:42.711Z,26.17
2018-12-16T00:55:10.199Z,25.17
2018-12-16T00:57:37.690Z,25.27
2018-12-16T01:00:09.579Z,26.47
2018-12-16T01:02:41.644Z,25.80
2018-12-16T01:05:09.788Z,25.43
2018-12-16T01:07:37.278Z,26.50
2018-12-16T01:10:06.535Z,26.40
2018-12-16T01:12:34.038Z,25.07
2018-12-16T01:15:01.520Z,27.00
2018-12-16T01:17:28.990Z,26.63
2018-12-16T01:19:56.466Z,26.50
2018-12-16T01:22:23.972Z,26.73
2018-12-16T01:24:51.450Z,27.83
2018-12-16T01:27:18.938Z,27.37
2018-12-16T01:29:46.481Z,28.07
2018-12-16T01:32:13.966Z,27.77
2018-12-16T01:34:42.207Z,27.90
2018-12-16T01:37:09.760Z,28.87
2018-12-16T01:39:37.250Z,27.77
2018-12-16T01:42:04.737Z,29.13
2018-12-16T01:44:32.227Z,29.20
2018-12-16T01:46:59.700Z,27.83
2018-12-16T01:49:27.214Z,29.17
2018-12-16T01:51:54.725Z,28.17
2018-12-16T01:54:22.199Z,27.93
2018-12-16T01:56:49.694Z,27.07
2018-12-16T01:59:17.161Z,31.47
2018-12-16T02:01:46.676Z,30.13
2018-12-16T02:04:14.151Z,30.00
2018-12-16T02:06:41.632Z,28.53
2018-12-16T02:09:11.111Z,28.93
2018-12-16T02:11:38.891Z,28.43
2018-12-16T02:14:06.418Z,29.07
2018-12-16T02:16:34.372Z,29.13
2018-12-16T02:19:01.859Z,28.20
2018-12-16T02:21:30.266Z,27.50
2018-12-16T02:23:57.737Z,28.83
2018-12-16T02:26:25.221Z,27.87
2018-12-16T02:28:52.715Z,28.40
2018-12-16T02:31:20.198Z,28.97
2018-12-16T02:33:47.695Z,30.67
2018-12-16T02:36:15.217Z,27.10
2018-12-16T02:38:42.694Z,28.50
2018-12-16T02:41:10.182Z,28.73
2018-12-16T02:43:37.662Z,29.97
2018-12-16T02:46:05.147Z,26.97
2018-12-16T02:48:32.637Z,29.90
2018-12-16T02:51:00.115Z,28.30
2018-12-16T02:53:27.590Z,28.60
2018-12-16T02:55:55.089Z,28.23
2018-12-16T02:58:22.561Z,28.47
2018-12-16T03:00:50.048Z,30.00
2018-12-16T03:03:17.562Z,30.00
2018-12-16T03:05:45.038Z,31.70
2018-12-16T03:08:12.511Z,31.20
2018-12-16T03:10:39.987Z,29.50
2018-12-16T03:13:07.463Z,28.37
2018-12-16T03:15:34.960Z,27.57
2018-12-16T03:18:02.434Z,29.53
2018-12-16T03:20:29.926Z,29.80
2018-12-16T03:22:57.398Z,28.77
2018-12-16T03:25:24.883Z,28.73
2018-12-16T03:27:52.374Z,31.10
2018-12-16T03:30:19.854Z,29.03
2018-12-16T03:32:47.362Z,29.07
2018-12-16T03:35:14.959Z,28.20
2018-12-16T03:37:42.461Z,26.87
2018-12-16T03:40:09.941Z,27.97
2018-12-16T03:42:37.420Z,26.03
2018-12-16T03:45:04.897Z,29.83
2018-12-16T03:47:32.373Z,27.83
2018-12-16T03:49:59.864Z,28.87
2018-12-16T03:52:27.336Z,29.27
2018-12-16T03:54:54.841Z,28.90
2018-12-16T03:57:22.454Z,30.73
2018-12-16T03:59:49.957Z,28.73
2018-12-16T04:02:17.435Z,28.03
2018-12-16T04:04:44.908Z,27.47
2018-12-16T04:07:12.388Z,28.57
2018-12-16T04:09:39.876Z,26.87
2018-12-16T04:12:07.374Z,28.67
2018-12-16T04:14:34.865Z,27.47
2018-12-16T04:17:02.363Z,27.33
2018-12-16T04:19:29.834Z,29.27
2018-12-16T04:21:57.333Z,27.57
2018-12-16T04:24:24.805Z,26.50
2018-12-16T04:26:52.283Z,28.43
2018-12-16T04:29:19.770Z,27.40
2018-12-16T04:31:47.264Z,29.60
2018-12-16T04:34:14.765Z,28.07
2018-12-16T04:36:42.252Z,27.33
2018-12-16T04:39:09.723Z,28.23
2018-12-16T04:41:37.195Z,29.47
2018-12-16T04:44:04.675Z,28.83
2018-12-16T04:46:32.147Z,27.23
2018-12-16T04:48:59.621Z,28.60
2018-12-16T04:51:27.141Z,27.47
2018-12-16T04:53:54.623Z,28.67
2018-12-16T04:56:22.126Z,28.57
2018-12-16T04:58:49.619Z,27.07
2018-12-16T05:01:17.107Z,26.97
2018-12-16T05:03:44.600Z,27.03
2018-12-16T05:06:12.102Z,26.30
2018-12-16T05:08:39.569Z,25.43
2018-12-16T05:11:07.069Z,26.40
2018-12-16T05:13:34.578Z,27.13
2018-12-16T05:16:02.054Z,28.43
2018-12-16T05:18:29.554Z,28.23
2018-12-16T05:20:57.039Z,26.63
2018-12-16T05:23:24.517Z,28.63
2018-12-16T05:25:51.999Z,28.60
2018-12-16T05:28:19.475Z,29.47
2018-12-16T05:30:47.016Z,28.63
2018-12-16T05:33:14.500Z,26.70
2018-12-16T05:35:41.983Z,26.40
2018-12-16T05:38:09.463Z,28.37
2018-12-16T05:40:36.934Z,28.30
2018-12-16T05:43:04.419Z,26.43
2018-12-16T05:45:31.891Z,29.43
2018-12-16T05:47:59.396Z,28.33
2018-12-16T05:50:26.877Z,27.83
2018-12-16T05:52:54.347Z,30.03
2018-12-16T05:55:21.854Z,31.23
2018-12-16T05:57:49.362Z,30.27
2018-12-16T06:00:16.834Z,27.53
2018-12-16T06:02:44.319Z,29.10
2018-12-16T06:05:11.840Z,28.10
2018-12-16T06:07:39.364Z,30.13
2018-12-16T06:10:06.930Z,28.73
2018-12-16T06:12:34.465Z,29.27
2018-12-16T06:15:01.945Z,30.73
2018-12-16T06:17:29.438Z,29.50
2018-12-16T06:19:57.914Z,29.27
2018-12-16T06:22:25.415Z,28.47
2018-12-16T06:24:52.882Z,31.20
2018-12-16T06:27:20.371Z,28.93
2018-12-16T06:29:48.141Z,29.07
2018-12-16T06:32:15.633Z,28.83
2018-12-16T06:34:43.118Z,29.20
2018-12-16T06:37:10.709Z,29.47
2018-12-16T06:39:38.210Z,28.30
2018-12-16T06:42:05.710Z,29.03
2018-12-16T06:44:33.186Z,29.10
2018-12-16T06:47:00.667Z,29.27
2018-12-16T06:49:28.159Z,28.83
2018-12-16T06:51:55.660Z,30.00
2018-12-16T06:54:23.152Z,29.87
2018-12-16T06:57:00.364Z,29.17
2018-12-16T06:59:27.903Z,30.27
2018-12-16T07:01:55.385Z,30.57
2018-12-16T07:04:22.893Z,28.97
2018-12-16T07:06:50.519Z,28.63
2018-12-16T07:09:17.996Z,29.50
2018-12-16T07:11:45.503Z,28.93
2018-12-16T07:14:13.017Z,28.60
2018-12-16T07:16:40.697Z,30.97
2018-12-16T07:19:08.422Z,30.13
2018-12-16T07:21:35.928Z,30.20
2018-12-16T07:24:09.241Z,29.60
2018-12-16T07:26:33.009Z,31.53
2018-12-16T07:29:00.538Z,31.03
2018-12-16T07:31:28.136Z,30.27
2018-12-16T07:33:55.734Z,32.47
2018-12-16T07:36:23.213Z,31.30
2018-12-16T07:38:50.738Z,29.93
2018-12-16T07:41:18.239Z,29.53
2018-12-16T07:43:45.884Z,29.80
2018-12-16T07:46:13.441Z,29.37
2018-12-16T07:48:41.067Z,29.00
2018-12-16T07:51:08.671Z,29.47
2018-12-16T07:53:36.172Z,29.40
2018-12-16T07:56:03.795Z,30.50
2018-12-16T07:58:31.472Z,31.47
2018-12-16T08:00:59.076Z,28.70
2018-12-16T08:03:26.671Z,28.80
2018-12-16T08:05:54.147Z,29.37
2018-12-16T08:08:21.763Z,29.87
2018-12-16T08:10:49.238Z,29.67
2018-12-16T08:13:16.706Z,29.23
2018-12-16T08:15:44.197Z,29.37
2018-12-16T08:18:11.673Z,29.33
2018-12-16T08:20:39.181Z,28.60
2018-12-16T08:23:06.754Z,29.37
2018-12-16T08:25:34.261Z,29.80
2018-12-16T08:28:01.733Z,28.77
2018-12-16T08:30:29.300Z,30.33
2018-12-16T08:32:56.786Z,29.33
2018-12-16T08:35:24.251Z,29.57
2018-12-16T08:37:51.715Z,27.30
2018-12-16T08:40:21.226Z,28.53
2018-12-16T08:42:48.726Z,28.20
2018-12-16T08:45:16.252Z,28.30
2018-12-16T08:47:43.731Z,28.57
2018-12-16T08:50:11.194Z,28.50
2018-12-16T08:52:38.669Z,26.23
2018-12-16T08:55:06.141Z,29.07
2018-12-16T08:57:33.620Z,28.97
2018-12-16T09:00:01.089Z,28.43
2018-12-16T09:02:28.564Z,27.00
2018-12-16T09:04:56.061Z,27.90
2018-12-16T09:07:23.531Z,27.60
2018-12-16T09:09:51.025Z,27.80
2018-12-16T09:12:19.470Z,28.10
2018-12-16T09:14:52.765Z,27.77
2018-12-16T09:17:20.247Z,26.33
2018-12-16T09:19:47.721Z,27.87
2018-12-16T09:22:15.218Z,27.87
2018-12-16T09:24:42.703Z,25.90
2018-12-16T09:27:10.187Z,26.10
2018-12-16T09:29:37.667Z,27.87
2018-12-16T09:32:05.145Z,29.20
2018-12-16T09:34:32.641Z,27.77
2018-12-16T09:37:00.115Z,26.07
2018-12-16T09:39:27.604Z,28.73
2018-12-16T09:41:55.104Z,28.47
2018-12-16T09:44:22.586Z,26.33
2018-12-16T09:46:50.120Z,27.40
2018-12-16T09:49:17.599Z,28.27
2018-12-16T09:51:45.067Z,28.40
2018-12-16T09:54:12.588Z,28.97
2018-12-16T09:56:40.059Z,27.77
2018-12-16T09:59:07.565Z,27.60
2018-12-16T10:01:35.047Z,28.37
2018-12-16T10:04:02.582Z,28.10
2018-12-16T10:06:30.121Z,27.47
2018-12-16T10:08:57.619Z,27.83
2018-12-16T10:11:25.090Z,27.00
2018-12-16T10:13:54.501Z,26.63
2018-12-16T10:16:21.973Z,27.63
2018-12-16T10:18:50.445Z,27.30
2018-12-16T10:21:19.961Z,27.50
2018-12-16T10:23:51.131Z,27.53
2018-12-16T10:26:21.725Z,28.03
2018-12-16T10:28:49.255Z,28.13
2018-12-16T10:31:17.025Z,27.40
2018-12-16T10:33:45.715Z,26.03
2018-12-16T10:36:15.114Z,27.37
2018-12-16T10:38:48.188Z,27.13
2018-12-16T10:41:16.917Z,29.30
2018-12-16T10:43:44.445Z,28.47
2018-12-16T10:46:13.928Z,27.70
2018-12-16T10:48:45.050Z,29.13
2018-12-16T10:51:12.585Z,28.50
2018-12-16T10:53:40.122Z,26.73
2018-12-16T10:56:07.693Z,28.70
2018-12-16T10:58:39.084Z,29.47
2018-12-16T11:01:12.230Z,27.17
2018-12-16T11:03:39.773Z,27.97
2018-12-16T11:06:07.348Z,26.27
2018-12-16T11:08:35.011Z,27.70
2018-12-16T11:11:02.608Z,26.87
2018-12-16T11:13:30.134Z,27.67
2018-12-16T11:15:57.690Z,28.07
2018-12-16T11:18:25.279Z,27.50
2018-12-16T11:20:52.839Z,27.87
2018-12-16T11:23:20.396Z,28.67
2018-12-16T11:25:48.197Z,30.90
2018-12-16T11:28:15.783Z,27.97
2018-12-16T11:30:43.371Z,27.20
2018-12-16T11:33:10.902Z,27.20
2018-12-16T11:35:38.573Z,27.53
2018-12-16T11:38:06.153Z,28.83
2018-12-16T11:40:33.753Z,27.90
2018-12-16T11:43:01.366Z,29.30
2018-12-16T11:45:28.953Z,28.10
2018-12-16T11:47:56.767Z,27.23
2018-12-16T11:50:24.367Z,28.10
2018-12-16T11:52:51.907Z,29.00
2018-12-16T11:55:19.547Z,28.13
2018-12-16T11:57:47.041Z,28.17
2018-12-16T12:00:14.598Z,28.03
2018-12-16T12:02:42.190Z,27.87
2018-12-16T12:05:09.734Z,27.87
2018-12-16T12:07:37.339Z,28.37
2018-12-16T12:10:05.399Z,28.17
2018-12-16T12:12:32.872Z,26.53
2018-12-16T12:15:00.362Z,28.10
2018-12-16T12:17:27.827Z,26.90
2018-12-16T12:19:55.308Z,29.50
2018-12-16T12:22:22.778Z,26.83
2018-12-16T12:24:50.246Z,28.97
2018-12-16T12:27:18.692Z,30.13
2018-12-16T12:29:46.168Z,29.00
2018-12-16T12:32:13.639Z,28.73
2018-12-16T12:34:41.118Z,30.73
2018-12-16T12:37:08.590Z,28.60
2018-12-16T12:39:36.058Z,29.80
2018-12-16T12:42:03.539Z,28.10
2018-12-16T12:44:31.029Z,28.93
2018-12-16T12:46:58.507Z,29.70
2018-12-16T12:49:25.975Z,28.80
2018-12-16T12:51:53.448Z,30.20
2018-12-16T12:54:20.967Z,29.00
2018-12-16T12:56:48.454Z,29.03
2018-12-16T12:59:15.924Z,29.67
2018-12-16T13:01:43.399Z,29.60
2018-12-16T13:04:10.866Z,30.47
2018-12-16T13:06:38.337Z,30.03
2018-12-16T13:09:06.499Z,27.87
2018-12-16T13:11:34.946Z,29.17
2018-12-16T13:14:03.426Z,28.60
2018-12-16T13:16:30.889Z,29.87
2018-12-16T13:18:58.360Z,30.83
2018-12-16T13:21:25.817Z,31.00
2018-12-16T13:23:54.303Z,31.43
2018-12-16T13:26:21.978Z,29.83
2018-12-16T13:28:54.746Z,28.83
2018-12-16T13:31:22.223Z,29.17
2018-12-16T13:33:52.748Z,30.63
2018-12-16T13:36:21.329Z,30.17
2018-12-16T13:38:48.803Z,28.70
2018-12-16T13:41:16.306Z,30.37
2018-12-16T13:43:43.770Z,30.73
2018-12-16T13:46:11.243Z,29.43
2018-12-16T13:48:38.717Z,29.33
2018-12-16T13:51:06.418Z,30.07
2018-12-16T13:53:34.983Z,29.60
2018-12-16T13:56:02.458Z,31.10
2018-12-16T13:58:29.926Z,30.87
2018-12-16T14:00:57.393Z,30.40
2018-12-16T14:03:24.865Z,27.87
2018-12-16T14:05:52.922Z,30.30
2018-12-16T14:08:20.421Z,32.63
2018-12-16T14:10:47.900Z,29.73
2018-12-16T14:13:15.395Z,31.00
2018-12-16T14:15:42.885Z,30.37
2018-12-16T14:18:10.354Z,30.90
2018-12-16T14:20:37.874Z,31.07
2018-12-16T14:23:05.349Z,31.80
2018-12-16T14:25:32.824Z,30.97
2018-12-16T14:28:00.327Z,31.90
2018-12-16T14:30:27.821Z,33.53
2018-12-16T14:32:55.286Z,33.27
2018-12-16T14:35:22.940Z,31.73
2018-12-16T14:37:50.414Z,33.07
2018-12-16T14:40:19.929Z,31.73
2018-12-16T14:45:41.799Z,33.17
2018-12-16T14:48:09.417Z,33.13
2018-12-16T14:50:37.042Z,33.63
2018-12-16T14:53:04.659Z,32.70
2018-12-16T14:55:32.251Z,31.23
2018-12-16T14:57:59.859Z,31.77
2018-12-16T15:00:27.592Z,30.87
2018-12-16T15:02:55.183Z,30.43
2018-12-16T15:05:27.277Z,29.73
2018-12-16T15:07:54.902Z,30.80
2018-12-16T15:10:22.507Z,31.23
2018-12-16T15:12:50.211Z,30.40
2018-12-16T15:15:18.583Z,29.43
2018-12-16T15:17:46.221Z,29.93
2018-12-16T15:20:13.775Z,30.73
2018-12-16T15:22:41.369Z,31.07
2018-12-16T15:25:08.899Z,30.67
2018-12-16T15:27:36.454Z,32.13
2018-12-16T15:30:06.836Z,33.90
2018-12-16T15:32:34.453Z,32.93
2018-12-16T15:35:01.927Z,31.17
2018-12-16T15:37:29.398Z,28.93
2018-12-16T15:39:56.870Z,31.57
2018-12-16T15:42:24.336Z,32.90
2018-12-16T15:44:51.842Z,30.23
2018-12-16T15:47:20.230Z,29.90
2018-12-16T15:49:47.694Z,33.30
2018-12-16T15:52:15.205Z,30.43
2018-12-16T15:54:42.676Z,30.87
2018-12-16T15:57:10.250Z,31.20
2018-12-16T15:59:37.747Z,33.20
2018-12-16T16:02:05.218Z,30.77
2018-12-16T16:04:32.681Z,29.43
2018-12-16T16:07:00.150Z,28.43
2018-12-16T16:09:27.619Z,31.30
2018-12-16T16:11:55.100Z,30.93
2018-12-16T16:14:22.590Z,32.33
2018-12-16T16:16:50.063Z,30.60
2018-12-16T16:19:17.567Z,30.87
2018-12-16T16:21:45.029Z,29.60
2018-12-16T16:24:12.499Z,30.00
2018-12-16T16:26:39.982Z,31.30
2018-12-16T16:29:07.459Z,30.07
2018-12-16T16:31:34.960Z,30.63
2018-12-16T16:34:02.436Z,30.77
2018-12-16T16:36:29.907Z,30.80
2018-12-16T16:38:57.382Z,30.37
2018-12-16T16:41:24.847Z,30.97
2018-12-16T16:43:52.315Z,32.90
2018-12-16T16:46:19.784Z,32.70
2018-12-16T16:48:47.254Z,30.77
2018-12-16T16:51:14.756Z,32.10
2018-12-16T16:53:42.226Z,30.63
2018-12-16T16:56:09.695Z,30.73
2018-12-16T16:58:37.183Z,30.37
2018-12-16T17:01:04.751Z,31.00
2018-12-16T17:03:32.283Z,29.30
2018-12-16T17:05:59.750Z,31.37
2018-12-16T17:08:27.235Z,30.77
2018-12-16T17:10:54.706Z,31.80
2018-12-16T17:13:22.179Z,30.93
2018-12-16T17:15:49.646Z,31.67
2018-12-16T17:18:17.177Z,33.20
2018-12-16T17:20:44.646Z,31.30
2018-12-16T17:23:12.148Z,30.97
2018-12-16T17:25:39.614Z,31.40
2018-12-16T17:28:07.101Z,31.33
2018-12-16T17:30:34.575Z,31.77
2018-12-16T17:33:02.043Z,32.40
2018-12-16T17:35:29.539Z,31.10
2018-12-16T17:37:57.003Z,32.53
2018-12-16T17:40:24.496Z,31.13
2018-12-16T17:42:51.972Z,33.13
2018-12-16T17:45:19.444Z,32.33
2018-12-16T17:47:46.906Z,33.67
2018-12-16T17:50:14.377Z,34.33
2018-12-16T17:52:41.867Z,36.00
2018-12-16T17:55:09.337Z,34.53
2018-12-16T17:57:36.819Z,36.27
2018-12-16T18:00:06.392Z,35.53
2018-12-16T18:02:33.871Z,37.20
2018-12-16T18:05:01.343Z,36.07
2018-12-16T18:07:28.817Z,36.50
2018-12-16T18:09:56.295Z,36.83
2018-12-16T18:12:23.810Z,36.57
2018-12-16T18:14:51.310Z,38.17
2018-12-16T18:17:18.812Z,38.07
2018-12-16T18:19:46.286Z,39.20
2018-12-16T18:22:14.094Z,37.47
2018-12-16T18:24:41.863Z,37.33
2018-12-16T18:27:09.330Z,37.97
2018-12-16T18:29:36.821Z,38.07
2018-12-16T18:32:04.671Z,37.73
2018-12-16T18:34:32.150Z,38.07
2018-12-16T18:36:59.663Z,39.40
2018-12-16T18:39:27.198Z,37.87
2018-12-16T18:41:57.095Z,40.07
2018-12-16T18:44:24.549Z,40.60
2018-12-16T18:46:52.027Z,41.37
2018-12-16T18:49:19.522Z,37.37
2018-12-16T18:51:47.024Z,38.47
2018-12-16T18:54:15.174Z,37.37
2018-12-16T18:56:42.662Z,35.37
2018-12-16T18:59:10.199Z,38.63
2018-12-16T19:01:37.741Z,38.87
2018-12-16T19:04:05.331Z,38.10
2018-12-16T19:06:33.227Z,36.90
2018-12-16T19:09:00.708Z,39.97
2018-12-16T19:11:28.193Z,40.57
2018-12-16T19:13:55.677Z,40.47
2018-12-16T19:16:23.180Z,40.87
2018-12-16T19:18:50.800Z,39.03
2018-12-16T19:21:18.415Z,40.87
2018-12-16T19:23:45.903Z,37.87
2018-12-16T19:26:13.376Z,37.70
2018-12-16T19:28:40.845Z,38.17
2018-12-16T19:31:08.387Z,52.30
2018-12-16T19:33:35.889Z,46.80
2018-12-16T19:36:04.026Z,45.47
2018-12-16T19:38:31.511Z,42.67
2018-12-16T19:40:58.990Z,37.13
2018-12-16T19:43:30.350Z,38.67
2018-12-16T19:45:57.855Z,37.43
2018-12-16T19:48:25.329Z,37.53
2018-12-16T19:50:52.811Z,38.50
2018-12-16T19:53:20.367Z,39.87
2018-12-16T19:55:47.871Z,42.17
2018-12-16T19:58:15.368Z,40.73
2018-12-16T20:00:42.890Z,36.87
2018-12-16T20:03:18.059Z,39.10
2018-12-16T20:05:51.181Z,38.63
2018-12-16T20:08:18.739Z,38.50
2018-12-16T20:10:46.225Z,38.03
2018-12-16T20:13:14.711Z,36.40
2018-12-16T20:15:43.386Z,38.83
2018-12-16T20:18:10.935Z,37.93
2018-12-16T20:20:39.424Z,37.53
2018-12-16T20:23:06.930Z,37.53
2018-12-16T20:25:34.419Z,36.27
2018-12-16T20:28:01.930Z,36.87
2018-12-16T20:30:29.413Z,39.23
2018-12-16T20:32:56.929Z,37.07
2018-12-16T20:35:24.735Z,37.67
2018-12-16T20:37:52.604Z,36.90
2018-12-16T20:40:20.137Z,38.27
2018-12-16T20:42:48.299Z,36.70
2018-12-16T20:45:15.788Z,38.67
2018-12-16T20:47:45.202Z,37.80
2018-12-16T20:50:12.681Z,38.17
2018-12-16T20:52:40.177Z,39.83
2018-12-16T20:55:07.721Z,36.50
2018-12-16T20:57:35.206Z,38.63
2018-12-16T21:00:03.214Z,39.67
2018-12-16T21:02:30.712Z,39.33
2018-12-16T21:04:58.225Z,38.37
2018-12-16T21:07:25.776Z,37.20
2018-12-16T21:09:53.275Z,40.53
2018-12-16T21:12:27.140Z,40.20
2018-12-16T21:15:00.263Z,40.13
2018-12-16T21:17:33.344Z,42.47
2018-12-16T21:20:00.840Z,37.50
2018-12-16T21:22:33.115Z,37.53
2018-12-16T21:25:00.605Z,39.60
2018-12-16T21:27:29.034Z,39.33
2018-12-16T21:29:57.527Z,38.67
2018-12-16T21:32:25.015Z,38.03
2018-12-16T21:34:52.536Z,37.53
2018-12-16T21:37:20.022Z,35.70
2018-12-16T21:39:47.493Z,35.87
2018-12-16T21:42:15.363Z,38.97
2018-12-16T21:44:42.837Z,37.33
2018-12-16T21:47:10.336Z,37.17
2018-12-16T21:49:37.870Z,34.73
2018-12-16T21:52:05.352Z,38.07
2018-12-16T21:54:32.871Z,33.90
2018-12-16T21:57:00.391Z,36.57
2018-12-16T21:59:27.970Z,39.13
2018-12-16T22:01:55.469Z,37.10
2018-12-16T22:04:23.070Z,39.13
2018-12-16T22:06:50.830Z,39.13
2018-12-16T22:09:19.302Z,37.53
2018-12-16T22:11:46.785Z,36.13
2018-12-16T22:14:14.283Z,35.23
2018-12-16T22:16:43.739Z,36.37
2018-12-16T22:19:11.207Z,35.37
2018-12-16T22:21:38.723Z,38.27
2018-12-16T22:24:06.225Z,35.70
2018-12-16T22:26:33.914Z,37.00
2018-12-16T22:29:01.441Z,35.43
2018-12-16T22:31:28.922Z,33.67
2018-12-16T22:33:56.415Z,35.20
2018-12-16T22:36:23.898Z,33.70
2018-12-16T22:38:51.379Z,35.67
2018-12-16T22:41:18.862Z,35.23
2018-12-16T22:43:46.522Z,35.77
2018-12-16T22:46:14.390Z,37.73
2018-12-16T22:48:42.394Z,33.80
2018-12-16T22:51:09.931Z,35.77
2018-12-16T22:53:37.498Z,32.53
2018-12-16T22:56:04.987Z,31.30
2018-12-16T22:58:32.493Z,34.13
2018-12-16T23:01:05.401Z,35.43
2018-12-16T23:03:32.898Z,36.20
2018-12-16T23:06:02.274Z,34.93
2018-12-16T23:08:29.824Z,35.20
2018-12-16T23:10:57.303Z,32.97
2018-12-16T23:13:24.777Z,35.03
2018-12-16T23:15:52.244Z,34.73
2018-12-16T23:18:19.796Z,33.57
2018-12-16T23:20:47.346Z,35.37
2018-12-16T23:23:14.817Z,35.67
2018-12-16T23:25:42.302Z,33.70
2018-12-16T23:28:09.783Z,37.60
2018-12-16T23:30:37.283Z,36.53
2018-12-16T23:33:04.788Z,35.43
2018-12-16T23:35:32.290Z,34.43
2018-12-16T23:37:59.789Z,34.90
2018-12-16T23:40:27.258Z,35.07
2018-12-16T23:42:54.775Z,35.53
2018-12-16T23:45:22.246Z,34.70
2018-12-16T23:47:49.739Z,35.77
2018-12-16T23:50:17.261Z,34.90
2018-12-16T23:52:44.736Z,36.73
2018-12-16T23:55:12.218Z,36.23
2018-12-16T23:57:39.702Z,39.33
